Eia — LA5297 — position and weather

sailwx.info

Track history (hours):
 
Tides and Currents Weather Stations Pressure Air Temp Water Temp Dewpoint Dewpoint Depression Visibility Wind Speed Wind Dir Waves Ship Positions

Eia

Last reported at 2017-Oct-09 07:03 UTC. Time now 2017-Oct-20 16:21 UTC.
Position N 68°47' E 017°11'.
Warning: this ship's position is 11 days out of date.

Length 7 m.

Type: Pleasure craft. MMSI: 258173020.

Date/timePositionNaut miles runAvg speedWind from/ knotsBaromVisibWave heightAir tempDewpointWater temp
2017-Oct-09 07:03N 68°47' E 017°11'0 0.0
2017-Oct-09 06:57N 68°47' E 017°11'0 0.0
2017-Oct-09 06:27N 68°47' E 017°11'0 0.0
2017-Oct-09 06:00N 68°47' E 017°11'0 0.0
2017-Oct-09 05:30N 68°47' E 017°11'0 0.0
2017-Oct-09 05:00N 68°47' E 017°11'0 0.0
2017-Oct-09 04:30N 68°47' E 017°11'0 0.0
2017-Oct-09 04:00N 68°47' E 017°11'0 0.0
2017-Oct-09 03:30N 68°47' E 017°11'0 0.0
2017-Oct-09 03:00N 68°47' E 017°11'0 0.0
2017-Oct-09 02:30N 68°47' E 017°11'0 0.0
2017-Oct-09 02:00N 68°47' E 017°11'0 0.0
2017-Oct-09 01:27N 68°47' E 017°11'0 0.0
2017-Oct-09 01:00N 68°47' E 017°11'0 0.0
2017-Oct-09 00:30N 68°47' E 017°11'0 0.0
2017-Oct-09 00:00N 68°47' E 017°11'0 0.0
2017-Oct-08 23:30N 68°47' E 017°11'0 0.0
2017-Oct-08 23:00N 68°47' E 017°11'0 0.0
2017-Oct-08 22:30N 68°47' E 017°11'0 0.0
2017-Oct-08 22:00N 68°47' E 017°11'0 0.0
2017-Oct-08 21:30N 68°47' E 017°11'0 0.0
2017-Oct-08 20:57N 68°47' E 017°11'0 0.0
2017-Oct-08 20:30N 68°47' E 017°11'0 0.0
2017-Oct-08 19:57N 68°47' E 017°11'0 0.0
2017-Oct-08 19:27N 68°47' E 017°11'0 0.0
2017-Oct-08 18:57N 68°47' E 017°11'0 0.0
2017-Oct-08 18:30N 68°47' E 017°11'0 0.0
2017-Oct-08 17:59N 68°47' E 017°11'0 0.0
2017-Oct-08 17:29N 68°47' E 017°11'0 0.0
2017-Oct-08 16:59N 68°47' E 017°11'0 0.0
2017-Oct-08 16:29N 68°47' E 017°11'0 0.0
2017-Oct-08 15:59N 68°47' E 017°11'0 0.0
2017-Oct-08 15:29N 68°47' E 017°11'0 0.0
2017-Oct-08 14:56N 68°47' E 017°11'0 0.0
2017-Oct-08 14:29N 68°47' E 017°11'0 0.0
2017-Oct-08 13:59N 68°47' E 017°11'0 0.0
2017-Oct-08 13:29N 68°47' E 017°11'0 0.0
2017-Oct-08 12:56N 68°47' E 017°11'0 0.0
2017-Oct-08 12:29N 68°47' E 017°11'0 0.0
2017-Oct-08 11:59N 68°47' E 017°11'0 0.0
2017-Oct-08 11:29N 68°47' E 017°11'0 0.0
2017-Oct-08 10:59N 68°47' E 017°11'0 0.0
2017-Oct-08 10:29N 68°47' E 017°11'0 0.0
2017-Oct-08 09:56N 68°47' E 017°11'0 0.9
2017-Oct-08 09:30N 68°46' E 017°11'1 0.9
2017-Oct-08 07:56N 68°45' E 017°12'0 0.3
2017-Oct-08 07:28N 68°45' E 017°12'7 3.7
2017-Oct-08 05:38N 68°50' E 017°24'0 0.4
2017-Oct-08 05:29N 68°50' E 017°25'1 2.9
2017-Oct-08 04:59N 68°49' E 017°22'2 3.3
2017-Oct-08 04:30N 68°48' E 017°18'  
2017-Oct-05 09:58N 68°46' E 017°11'1 2.5
2017-Oct-05 09:29N 68°45' E 017°11'0 0.4
2017-Oct-05 09:01N 68°45' E 017°11'0 0.1
2017-Oct-05 08:30N 68°45' E 017°11'  
2017-Oct-02 07:36N 68°48' E 017°20'217.3
2017-Oct-02 07:30N 68°50' E 017°24'0 0.8
2017-Oct-02 06:59N 68°50' E 017°25'0 0.2
2017-Oct-02 06:29N 68°50' E 017°25'0 0.3
2017-Oct-02 05:58N 68°50' E 017°24'0 0.1
2017-Oct-02 05:30N 68°50' E 017°24'1 1.5
2017-Oct-02 04:59N 68°49' E 017°24'0 0.2
2017-Oct-02 04:29N 68°49' E 017°24'6 0.5
2017-Oct-01 15:57N 68°45' E 017°11'0 0.3
2017-Oct-01 15:29N 68°45' E 017°11'1 3.1
2017-Oct-01 15:00N 68°45' E 017°15'3 6.7
2017-Oct-01 14:30N 68°48' E 017°19'1 2.0
2017-Oct-01 14:00N 68°48' E 017°22'0 0.3
2017-Oct-01 13:30N 68°48' E 017°21'4 0.1
2017-Sep-29 18:20N 68°46' E 017°11'616.5
2017-Sep-29 18:00N 68°44' E 016°58'  
Track history (hours):
 
Tides and Currents Weather Stations Pressure Air Temp Water Temp Dewpoint Dewpoint Depression Visibility Wind Speed Wind Dir Waves Ship Positions

Eia

Last reported at 2017-Oct-09 07:03 UTC. Time now 2017-Oct-20 16:21 UTC.
Position N 68°47' E 017°11'.
Warning: this ship's position is 11 days out of date.

Length 7 m.

Type: Pleasure craft. MMSI: 258173020.

Date/timePositionNaut miles runAvg speedWind from/ knotsBaromVisibWave heightAir tempDewpointWater temp
2017-Oct-09 07:03N 68°47' E 017°11'0 0.0
2017-Oct-09 06:57N 68°47' E 017°11'0 0.0
2017-Oct-09 06:27N 68°47' E 017°11'0 0.0
2017-Oct-09 06:00N 68°47' E 017°11'0 0.0
2017-Oct-09 05:30N 68°47' E 017°11'0 0.0
2017-Oct-09 05:00N 68°47' E 017°11'0 0.0
2017-Oct-09 04:30N 68°47' E 017°11'0 0.0
2017-Oct-09 04:00N 68°47' E 017°11'0 0.0
2017-Oct-09 03:30N 68°47' E 017°11'0 0.0
2017-Oct-09 03:00N 68°47' E 017°11'0 0.0
2017-Oct-09 02:30N 68°47' E 017°11'0 0.0
2017-Oct-09 02:00N 68°47' E 017°11'0 0.0
2017-Oct-09 01:27N 68°47' E 017°11'0 0.0
2017-Oct-09 01:00N 68°47' E 017°11'0 0.0
2017-Oct-09 00:30N 68°47' E 017°11'0 0.0
2017-Oct-09 00:00N 68°47' E 017°11'0 0.0
2017-Oct-08 23:30N 68°47' E 017°11'0 0.0
2017-Oct-08 23:00N 68°47' E 017°11'0 0.0
2017-Oct-08 22:30N 68°47' E 017°11'0 0.0
2017-Oct-08 22:00N 68°47' E 017°11'0 0.0
2017-Oct-08 21:30N 68°47' E 017°11'0 0.0
2017-Oct-08 20:57N 68°47' E 017°11'0 0.0
2017-Oct-08 20:30N 68°47' E 017°11'0 0.0
2017-Oct-08 19:57N 68°47' E 017°11'0 0.0
2017-Oct-08 19:27N 68°47' E 017°11'0 0.0
2017-Oct-08 18:57N 68°47' E 017°11'0 0.0
2017-Oct-08 18:30N 68°47' E 017°11'0 0.0
2017-Oct-08 17:59N 68°47' E 017°11'0 0.0
2017-Oct-08 17:29N 68°47' E 017°11'0 0.0
2017-Oct-08 16:59N 68°47' E 017°11'0 0.0
2017-Oct-08 16:29N 68°47' E 017°11'0 0.0
2017-Oct-08 15:59N 68°47' E 017°11'0 0.0
2017-Oct-08 15:29N 68°47' E 017°11'0 0.0
2017-Oct-08 14:56N 68°47' E 017°11'0 0.0
2017-Oct-08 14:29N 68°47' E 017°11'0 0.0
2017-Oct-08 13:59N 68°47' E 017°11'0 0.0
2017-Oct-08 13:29N 68°47' E 017°11'0 0.0
2017-Oct-08 12:56N 68°47' E 017°11'0 0.0
2017-Oct-08 12:29N 68°47' E 017°11'0 0.0
2017-Oct-08 11:59N 68°47' E 017°11'0 0.0
2017-Oct-08 11:29N 68°47' E 017°11'0 0.0
2017-Oct-08 10:59N 68°47' E 017°11'0 0.0
2017-Oct-08 10:29N 68°47' E 017°11'0 0.0
2017-Oct-08 09:56N 68°47' E 017°11'0 0.9
2017-Oct-08 09:30N 68°46' E 017°11'1 0.9
2017-Oct-08 07:56N 68°45' E 017°12'0 0.3
2017-Oct-08 07:28N 68°45' E 017°12'7 3.7
2017-Oct-08 05:38N 68°50' E 017°24'0 0.4
2017-Oct-08 05:29N 68°50' E 017°25'1 2.9
2017-Oct-08 04:59N 68°49' E 017°22'2 3.3
2017-Oct-08 04:30N 68°48' E 017°18'  
2017-Oct-05 09:58N 68°46' E 017°11'1 2.5
2017-Oct-05 09:29N 68°45' E 017°11'0 0.4
2017-Oct-05 09:01N 68°45' E 017°11'0 0.1
2017-Oct-05 08:30N 68°45' E 017°11'  
2017-Oct-02 07:36N 68°48' E 017°20'217.3
2017-Oct-02 07:30N 68°50' E 017°24'0 0.8
2017-Oct-02 06:59N 68°50' E 017°25'0 0.2
2017-Oct-02 06:29N 68°50' E 017°25'0 0.3
2017-Oct-02 05:58N 68°50' E 017°24'0 0.1
2017-Oct-02 05:30N 68°50' E 017°24'1 1.5
2017-Oct-02 04:59N 68°49' E 017°24'0 0.2
2017-Oct-02 04:29N 68°49' E 017°24'6 0.5
2017-Oct-01 15:57N 68°45' E 017°11'0 0.3
2017-Oct-01 15:29N 68°45' E 017°11'1 3.1
2017-Oct-01 15:00N 68°45' E 017°15'3 6.7
2017-Oct-01 14:30N 68°48' E 017°19'1 2.0
2017-Oct-01 14:00N 68°48' E 017°22'0 0.3
2017-Oct-01 13:30N 68°48' E 017°21'4 0.1
2017-Sep-29 18:20N 68°46' E 017°11'616.5
2017-Sep-29 18:00N 68°44' E 016°58'  

Dump ship's entire track history